createdAt,value
2018-11-03T00:00:37.551Z,95867.00
2018-11-03T00:03:08.917Z,95866.00
2018-11-03T00:05:40.286Z,95870.00
2018-11-03T00:08:11.531Z,95866.00
2018-11-03T00:10:42.523Z,95861.00
2018-11-03T00:13:14.047Z,95863.00
2018-11-03T00:15:45.677Z,95870.00
2018-11-03T00:18:16.917Z,95865.00
2018-11-03T00:20:48.084Z,95866.00
2018-11-03T00:23:19.704Z,95860.00
2018-11-03T00:28:25.239Z,95868.00
2018-11-03T00:30:57.006Z,95863.00
2018-11-03T00:33:28.965Z,95859.00
2018-11-03T00:36:00.916Z,95855.00
2018-11-03T00:38:33.496Z,95859.00
2018-11-03T00:41:05.470Z,95860.00
2018-11-03T00:43:37.928Z,95860.00
2018-11-03T00:46:10.344Z,95865.00
2018-11-03T00:48:43.427Z,95864.00
2018-11-03T00:51:15.397Z,95863.00
2018-11-03T00:53:47.330Z,95857.00
2018-11-03T00:56:19.370Z,95852.00
2018-11-03T00:58:51.329Z,95857.00
2018-11-03T01:01:24.041Z,95854.00
2018-11-03T01:03:56.832Z,95857.00
2018-11-03T01:06:28.701Z,95857.00
2018-11-03T01:09:00.784Z,95851.00
2018-11-03T01:11:33.025Z,95845.00
2018-11-03T01:14:05.307Z,95845.00
2018-11-03T01:16:38.658Z,95847.00
2018-11-03T01:19:11.457Z,95843.00
2018-11-03T01:21:43.745Z,95843.00
2018-11-03T01:24:16.388Z,95848.00
2018-11-03T01:26:48.324Z,95854.00
2018-11-03T01:29:20.142Z,95850.00
2018-11-03T01:31:52.013Z,95846.00
2018-11-03T01:34:24.045Z,95854.00
2018-11-03T01:36:55.777Z,95851.00
2018-11-03T01:39:28.441Z,95843.00
2018-11-03T01:42:01.352Z,95843.00
2018-11-03T01:44:33.646Z,95841.00
2018-11-03T01:47:05.949Z,95841.00
2018-11-03T01:49:37.882Z,95843.00
2018-11-03T01:52:09.668Z,95842.00
2018-11-03T01:54:41.958Z,95844.00
2018-11-03T01:57:14.006Z,95846.00
2018-11-03T01:59:45.886Z,95846.00
2018-11-03T02:02:17.453Z,95836.00
2018-11-03T02:04:50.192Z,95837.00
2018-11-03T02:07:22.270Z,95835.00
2018-11-03T02:09:55.145Z,95829.00
2018-11-03T02:12:27.363Z,95825.00
2018-11-03T02:14:59.138Z,95830.00
2018-11-03T02:17:33.318Z,95830.00
2018-11-03T02:20:05.836Z,95829.00
2018-11-03T02:22:38.067Z,95832.00
2018-11-03T02:25:10.506Z,95833.00
2018-11-03T02:27:42.517Z,95832.00
2018-11-03T02:30:14.446Z,95826.00
2018-11-03T02:32:46.193Z,95829.00
2018-11-03T02:35:19.095Z,95833.00
2018-11-03T02:37:53.908Z,95830.00
2018-11-03T02:40:26.586Z,95830.00
2018-11-03T02:42:59.334Z,95838.00
2018-11-03T02:45:31.129Z,95834.00
2018-11-03T02:48:03.153Z,95836.00
2018-11-03T02:50:35.230Z,95834.00
2018-11-03T02:53:07.328Z,95837.00
2018-11-03T02:55:39.231Z,95834.00
2018-11-03T02:58:11.183Z,95833.00
2018-11-03T03:00:43.350Z,95838.00
2018-11-03T03:03:15.012Z,95837.00
2018-11-03T03:05:47.620Z,95838.00
2018-11-03T03:08:19.300Z,95838.00
2018-11-03T03:10:51.134Z,95837.00
2018-11-03T03:13:22.745Z,95834.00
2018-11-03T03:15:55.832Z,95845.00
2018-11-03T03:18:27.467Z,95836.00
2018-11-03T03:20:59.738Z,95827.00
2018-11-03T03:23:31.625Z,95827.00
2018-11-03T03:26:03.844Z,95830.00
2018-11-03T03:28:35.835Z,95829.00
2018-11-03T03:31:07.942Z,95830.00
2018-11-03T03:33:40.041Z,95833.00
2018-11-03T03:36:12.063Z,95828.00
2018-11-03T03:38:44.285Z,95829.00
2018-11-03T03:41:17.240Z,95827.00
2018-11-03T03:43:49.141Z,95829.00
2018-11-03T03:46:20.956Z,95824.00
2018-11-03T03:48:52.820Z,95825.00
2018-11-03T03:51:24.958Z,95833.00
2018-11-03T03:53:57.888Z,95830.00
2018-11-03T03:56:30.545Z,95827.00
2018-11-03T03:59:03.729Z,95822.00
2018-11-03T04:01:35.699Z,95823.00
2018-11-03T04:04:09.152Z,95829.00
2018-11-03T04:06:41.978Z,95824.00
2018-11-03T04:09:14.077Z,95827.00
2018-11-03T04:11:45.887Z,95828.00
2018-11-03T04:14:17.859Z,95824.00
2018-11-03T04:16:50.496Z,95820.00
2018-11-03T04:19:23.253Z,95823.00
2018-11-03T04:21:55.130Z,95825.00
2018-11-03T04:24:28.242Z,95817.00
2018-11-03T04:27:00.304Z,95821.00
2018-11-03T04:29:32.237Z,95822.00
2018-11-03T04:32:04.531Z,95826.00
2018-11-03T04:34:36.501Z,95820.00
2018-11-03T04:37:08.375Z,95825.00
2018-11-03T04:39:40.792Z,95825.00
2018-11-03T04:42:13.024Z,95828.00
2018-11-03T04:44:45.127Z,95829.00
2018-11-03T04:47:17.230Z,95825.00
2018-11-03T04:49:49.621Z,95830.00
2018-11-03T04:52:21.735Z,95831.00
2018-11-03T04:54:53.654Z,95832.00
2018-11-03T04:57:25.560Z,95831.00
2018-11-03T04:59:57.739Z,95833.00
2018-11-03T05:02:29.980Z,95837.00
2018-11-03T05:05:01.997Z,95835.00
2018-11-03T05:07:34.722Z,95836.00
2018-11-03T05:10:08.154Z,95833.00
2018-11-03T05:12:39.889Z,95837.00
2018-11-03T05:15:11.702Z,95838.00
2018-11-03T05:17:43.890Z,95836.00
2018-11-03T05:20:15.490Z,95839.00
2018-11-03T05:22:47.643Z,95837.00
2018-11-03T05:25:19.994Z,95838.00
2018-11-03T05:27:52.058Z,95845.00
2018-11-03T05:30:24.379Z,95848.00
2018-11-03T05:32:56.496Z,95844.00
2018-11-03T05:35:28.221Z,95848.00
2018-11-03T05:38:00.219Z,95851.00
2018-11-03T05:40:32.325Z,95853.00
2018-11-03T05:43:04.163Z,95855.00
2018-11-03T05:45:37.084Z,95854.00
2018-11-03T05:48:09.165Z,95853.00
2018-11-03T05:50:41.287Z,95858.00
2018-11-03T05:53:13.208Z,95858.00
2018-11-03T05:55:45.995Z,95858.00
2018-11-03T05:58:18.002Z,95864.00
2018-11-03T06:00:50.084Z,95870.00
2018-11-03T06:03:24.385Z,95866.00
2018-11-03T06:05:57.032Z,95873.00
2018-11-03T06:08:28.904Z,95873.00
2018-11-03T06:11:01.690Z,95873.00
2018-11-03T06:13:33.710Z,95869.00
2018-11-03T06:16:05.696Z,95869.00
2018-11-03T06:18:37.472Z,95866.00
2018-11-03T06:21:09.158Z,95874.00
2018-11-03T06:23:42.113Z,95877.00
2018-11-03T06:26:14.277Z,95880.00
2018-11-03T06:31:47.862Z,95884.00
2018-11-03T06:34:19.792Z,95879.00
2018-11-03T06:36:52.148Z,95886.00
2018-11-03T06:39:24.201Z,95879.00
2018-11-03T06:41:56.610Z,95885.00
2018-11-03T06:44:29.147Z,95885.00
2018-11-03T06:47:01.356Z,95873.00
2018-11-03T06:49:34.396Z,95880.00
2018-11-03T06:52:06.502Z,95875.00
2018-11-03T06:54:38.482Z,95870.00
2018-11-03T06:57:11.330Z,95878.00
2018-11-03T06:59:43.409Z,95878.00
2018-11-03T07:02:15.545Z,95878.00
2018-11-03T07:04:47.500Z,95871.00
2018-11-03T07:07:19.581Z,95874.00
2018-11-03T07:09:52.066Z,95868.00
2018-11-03T07:12:24.158Z,95868.00
2018-11-03T07:14:56.395Z,95872.00
2018-11-03T07:17:28.656Z,95871.00
2018-11-03T07:20:00.769Z,95868.00
2018-11-03T07:22:33.081Z,95878.00
2018-11-03T07:25:05.517Z,95880.00
2018-11-03T07:27:37.585Z,95870.00
2018-11-03T07:30:12.588Z,95866.00
2018-11-03T07:32:44.863Z,95872.00
2018-11-03T07:35:17.041Z,95874.00
2018-11-03T07:37:49.653Z,95872.00
2018-11-03T07:40:21.961Z,95871.00
2018-11-03T07:42:54.219Z,95872.00
2018-11-03T07:45:27.247Z,95875.00
2018-11-03T07:48:00.145Z,95868.00
2018-11-03T07:50:32.694Z,95870.00
2018-11-03T07:53:04.772Z,95871.00
2018-11-03T07:55:36.651Z,95867.00
2018-11-03T08:01:32.562Z,95864.00
2018-11-03T08:04:05.021Z,95857.00
2018-11-03T08:06:37.026Z,95856.00
2018-11-03T08:12:17.240Z,95852.00
2018-11-03T08:14:49.513Z,95852.00
2018-11-03T08:17:21.997Z,95844.00
2018-11-03T08:19:54.357Z,95843.00
2018-11-03T08:22:26.581Z,95839.00
2018-11-03T08:24:58.550Z,95838.00
2018-11-03T08:27:31.468Z,95836.00
2018-11-03T08:30:03.837Z,95834.00
2018-11-03T08:33:39.023Z,95826.00
2018-11-03T08:36:12.907Z,95817.00
2018-11-03T08:38:45.458Z,95822.00
2018-11-03T08:41:17.554Z,95825.00
2018-11-03T08:43:49.871Z,95814.00
2018-11-03T08:46:23.310Z,95812.00
2018-11-03T08:48:55.484Z,95814.00
2018-11-03T08:51:27.671Z,95810.00
2018-11-03T08:53:59.880Z,95813.00
2018-11-03T08:56:32.288Z,95812.00
2018-11-03T08:59:05.557Z,95806.00
2018-11-03T09:01:38.495Z,95802.00
2018-11-03T09:04:10.871Z,95798.00
2018-11-03T09:06:42.721Z,95788.00
2018-11-03T09:09:14.834Z,95784.00
2018-11-03T09:11:47.183Z,95787.00
2018-11-03T09:14:19.559Z,95788.00
2018-11-03T09:16:51.853Z,95787.00
2018-11-03T09:19:24.084Z,95780.00
2018-11-03T09:21:56.353Z,95774.00
2018-11-03T09:24:28.533Z,95772.00
2018-11-03T09:27:00.833Z,95765.00
2018-11-03T09:29:32.821Z,95760.00
2018-11-03T09:32:04.859Z,95758.00
2018-11-03T09:34:37.048Z,95752.00
2018-11-03T09:37:09.314Z,95743.00
2018-11-03T09:39:41.400Z,95744.00
2018-11-03T09:42:13.551Z,95740.00
2018-11-03T09:44:46.298Z,95733.00
2018-11-03T09:47:18.937Z,95741.00
2018-11-03T09:49:51.201Z,95731.00
2018-11-03T09:52:23.072Z,95730.00
2018-11-03T09:54:55.632Z,95726.00
2018-11-03T09:57:28.330Z,95723.00
2018-11-03T10:00:00.303Z,95723.00
2018-11-03T10:02:32.579Z,95717.00
2018-11-03T10:05:04.811Z,95712.00
2018-11-03T10:07:38.488Z,95702.00
2018-11-03T10:10:16.439Z,95697.00
2018-11-03T10:12:48.732Z,95691.00
2018-11-03T10:15:20.905Z,95687.00
2018-11-03T10:17:54.045Z,95684.00
2018-11-03T10:20:26.250Z,95677.00
2018-11-03T10:22:58.384Z,95678.00
2018-11-03T10:25:30.514Z,95666.00
2018-11-03T10:28:02.108Z,95667.00
2018-11-03T10:30:34.779Z,95665.00
2018-11-03T10:33:07.991Z,95656.00
2018-11-03T10:35:40.766Z,95653.00
2018-11-03T10:38:12.668Z,95644.00
2018-11-03T10:40:45.233Z,95642.00
2018-11-03T10:43:17.434Z,95642.00
2018-11-03T10:45:49.620Z,95629.00
2018-11-03T10:48:21.786Z,95626.00
2018-11-03T10:50:54.390Z,95626.00
2018-11-03T10:53:26.761Z,95623.00
2018-11-03T10:55:59.385Z,95614.00
2018-11-03T10:58:31.570Z,95611.00
2018-11-03T11:01:08.533Z,95611.00
2018-11-03T11:03:45.949Z,95609.00
2018-11-03T11:06:22.638Z,95610.00
2018-11-03T11:08:59.649Z,95602.00
2018-11-03T11:11:36.944Z,95596.00
2018-11-03T11:14:09.272Z,95601.00
2018-11-03T11:16:41.462Z,95598.00
2018-11-03T11:19:14.552Z,95596.00
2018-11-03T11:21:46.614Z,95586.00
2018-11-03T11:24:18.822Z,95581.00
2018-11-03T11:26:50.894Z,95582.00
2018-11-03T11:29:23.746Z,95580.00
2018-11-03T11:31:56.888Z,95574.00
2018-11-03T11:34:29.279Z,95568.00
2018-11-03T11:37:01.527Z,95566.00
2018-11-03T11:39:33.964Z,95562.00
2018-11-03T11:42:06.073Z,95555.00
2018-11-03T11:44:38.006Z,95550.00
2018-11-03T11:47:10.149Z,95552.00
2018-11-03T11:49:42.526Z,95553.00
2018-11-03T11:56:17.537Z,95534.00
2018-11-03T11:58:50.034Z,95536.00
2018-11-03T12:01:22.607Z,95527.00
2018-11-03T12:03:54.916Z,95526.00
2018-11-03T12:06:26.898Z,95525.00
2018-11-03T12:08:59.443Z,95520.00
2018-11-03T12:11:31.790Z,95514.00
2018-11-03T12:14:04.061Z,95506.00
2018-11-03T12:16:36.340Z,95504.00
2018-11-03T12:19:09.009Z,95501.00
2018-11-03T12:21:41.363Z,95504.00
2018-11-03T12:24:13.677Z,95505.00
2018-11-03T12:26:45.723Z,95496.00
2018-11-03T12:29:17.936Z,95498.00
2018-11-03T12:31:49.860Z,95492.00
2018-11-03T12:34:21.826Z,95485.00
2018-11-03T12:36:53.878Z,95489.00
2018-11-03T12:39:26.187Z,95484.00
2018-11-03T12:41:59.510Z,95486.00
2018-11-03T12:44:32.460Z,95478.00
2018-11-03T12:47:05.278Z,95481.00
2018-11-03T12:49:37.613Z,95492.00
2018-11-03T12:52:10.065Z,95483.00
2018-11-03T12:54:42.252Z,95493.00
2018-11-03T12:57:14.462Z,95484.00
2018-11-03T12:59:46.736Z,95486.00
2018-11-03T13:02:19.871Z,95482.00
2018-11-03T13:04:52.610Z,95484.00
2018-11-03T13:07:24.967Z,95484.00
2018-11-03T13:09:57.106Z,95478.00
2018-11-03T13:12:29.361Z,95480.00
2018-11-03T13:15:01.488Z,95478.00
2018-11-03T13:17:33.495Z,95480.00
2018-11-03T13:20:06.684Z,95477.00
2018-11-03T13:22:39.101Z,95476.00
2018-11-03T13:25:11.837Z,95489.00
2018-11-03T13:27:44.110Z,95485.00
2018-11-03T13:30:16.908Z,95486.00
2018-11-03T13:32:50.390Z,95482.00
2018-11-03T13:35:22.709Z,95482.00
2018-11-03T13:37:54.783Z,95479.00
2018-11-03T13:40:27.512Z,95481.00
2018-11-03T13:43:00.452Z,95476.00
2018-11-03T13:45:32.398Z,95479.00
2018-11-03T13:48:04.410Z,95476.00
2018-11-03T13:50:36.903Z,95480.00
2018-11-03T13:53:09.188Z,95474.00
2018-11-03T13:55:41.657Z,95469.00
2018-11-03T13:58:14.247Z,95473.00
2018-11-03T14:00:46.273Z,95471.00
2018-11-03T14:03:18.451Z,95483.00
2018-11-03T14:05:53.529Z,95471.00
2018-11-03T14:08:27.794Z,95465.00
2018-11-03T14:11:01.844Z,95475.00
2018-11-03T14:13:33.988Z,95473.00
2018-11-03T14:16:05.719Z,95470.00
2018-11-03T14:18:37.915Z,95476.00
2018-11-03T14:21:10.142Z,95478.00
2018-11-03T14:23:42.386Z,95474.00
2018-11-03T14:26:15.647Z,95481.00
2018-11-03T14:28:47.738Z,95480.00
2018-11-03T14:31:19.688Z,95479.00
2018-11-03T14:33:51.895Z,95478.00
2018-11-03T14:36:24.518Z,95482.00
2018-11-03T14:38:56.707Z,95482.00
2018-11-03T14:41:28.923Z,95475.00
2018-11-03T14:44:01.160Z,95484.00
2018-11-03T14:46:33.404Z,95479.00
2018-11-03T14:49:05.922Z,95482.00
2018-11-03T14:51:38.109Z,95489.00
2018-11-03T14:54:12.049Z,95487.00
2018-11-03T14:56:44.337Z,95491.00
2018-11-03T14:59:16.277Z,95486.00
2018-11-03T15:01:49.155Z,95490.00
2018-11-03T15:04:22.188Z,95498.00
2018-11-03T15:06:54.239Z,95496.00
2018-11-03T15:09:26.213Z,95500.00
2018-11-03T15:11:58.276Z,95503.00
2018-11-03T15:14:30.305Z,95506.00
2018-11-03T15:17:02.645Z,95497.00
2018-11-03T15:19:34.761Z,95502.00
2018-11-03T15:22:07.555Z,95505.00
2018-11-03T15:24:39.867Z,95504.00
2018-11-03T15:27:12.366Z,95507.00
2018-11-03T15:29:45.190Z,95511.00
2018-11-03T15:32:18.434Z,95514.00
2018-11-03T15:34:50.913Z,95522.00
2018-11-03T15:37:23.186Z,95526.00
2018-11-03T15:39:55.303Z,95529.00
2018-11-03T15:42:27.547Z,95535.00
2018-11-03T15:44:59.543Z,95538.00
2018-11-03T15:47:31.727Z,95540.00
2018-11-03T15:50:03.880Z,95540.00
2018-11-03T15:52:36.441Z,95545.00
2018-11-03T15:55:08.881Z,95552.00
2018-11-03T15:57:40.857Z,95549.00
2018-11-03T16:00:17.493Z,95550.00
2018-11-03T16:02:50.111Z,95551.00
2018-11-03T16:05:22.232Z,95561.00
2018-11-03T16:07:54.799Z,95563.00
2018-11-03T16:10:27.329Z,95568.00
2018-11-03T16:12:59.418Z,95573.00
2018-11-03T16:15:31.544Z,95568.00
2018-11-03T16:18:03.704Z,95570.00
2018-11-03T16:20:35.700Z,95572.00
2018-11-03T16:23:08.025Z,95574.00
2018-11-03T16:25:40.077Z,95575.00
2018-11-03T16:28:12.527Z,95574.00
2018-11-03T16:30:44.798Z,95578.00
2018-11-03T16:33:17.207Z,95583.00
2018-11-03T16:35:49.624Z,95596.00
2018-11-03T16:38:21.799Z,95595.00
2018-11-03T16:40:55.299Z,95589.00
2018-11-03T16:43:27.899Z,95592.00
2018-11-03T16:46:00.550Z,95596.00
2018-11-03T16:48:33.712Z,95603.00
2018-11-03T16:51:06.808Z,95604.00
2018-11-03T16:53:39.192Z,95614.00
2018-11-03T16:56:11.620Z,95613.00
2018-11-03T16:58:44.380Z,95619.00
2018-11-03T17:01:16.469Z,95619.00
2018-11-03T17:03:48.867Z,95622.00
2018-11-03T17:06:21.272Z,95621.00
2018-11-03T17:08:54.167Z,95622.00
2018-11-03T17:11:26.501Z,95624.00
2018-11-03T17:13:59.671Z,95621.00
2018-11-03T17:16:32.296Z,95622.00
2018-11-03T17:19:04.724Z,95622.00
2018-11-03T17:21:37.060Z,95627.00
2018-11-03T17:24:11.417Z,95632.00
2018-11-03T17:26:43.627Z,95634.00
2018-11-03T17:29:16.472Z,95632.00
2018-11-03T17:31:48.800Z,95639.00
2018-11-03T17:34:20.902Z,95640.00
2018-11-03T17:36:53.480Z,95645.00
2018-11-03T17:39:27.773Z,95642.00
2018-11-03T17:41:59.625Z,95639.00
2018-11-03T17:44:32.112Z,95640.00
2018-11-03T17:47:04.321Z,95644.00
2018-11-03T17:49:38.073Z,95653.00
2018-11-03T17:52:10.225Z,95652.00
2018-11-03T17:54:42.776Z,95648.00
2018-11-03T17:57:19.426Z,95660.00
2018-11-03T17:59:51.845Z,95655.00
2018-11-03T18:02:25.050Z,95658.00
2018-11-03T18:04:57.661Z,95656.00
2018-11-03T18:07:31.312Z,95650.00
2018-11-03T18:10:03.719Z,95656.00
2018-11-03T18:12:36.175Z,95654.00
2018-11-03T18:15:10.251Z,95658.00
2018-11-03T18:17:43.161Z,95661.00
2018-11-03T18:20:15.951Z,95665.00
2018-11-03T18:22:48.347Z,95664.00
2018-11-03T18:25:20.786Z,95667.00
2018-11-03T18:27:53.775Z,95674.00
2018-11-03T18:30:25.990Z,95664.00
2018-11-03T18:32:58.224Z,95668.00
2018-11-03T18:35:30.571Z,95664.00
2018-11-03T18:38:03.110Z,95671.00
2018-11-03T18:40:35.534Z,95673.00
2018-11-03T18:43:08.094Z,95675.00
2018-11-03T18:45:41.225Z,95683.00
2018-11-03T18:48:13.448Z,95689.00
2018-11-03T18:50:46.538Z,95691.00
2018-11-03T18:53:19.880Z,95701.00
2018-11-03T18:55:52.930Z,95703.00
2018-11-03T18:58:26.590Z,95710.00
2018-11-03T19:01:00.522Z,95707.00
2018-11-03T19:03:32.662Z,95710.00
2018-11-03T19:06:05.696Z,95705.00
2018-11-03T19:08:38.158Z,95710.00
2018-11-03T19:11:12.625Z,95708.00
2018-11-03T19:13:44.848Z,95714.00
2018-11-03T19:16:17.778Z,95713.00
2018-11-03T19:18:50.120Z,95718.00
2018-11-03T19:21:22.548Z,95717.00
2018-11-03T19:23:54.882Z,95720.00
2018-11-03T19:26:27.087Z,95717.00
2018-11-03T19:28:59.968Z,95717.00
2018-11-03T19:31:32.212Z,95724.00
2018-11-03T19:34:04.444Z,95720.00
2018-11-03T19:36:37.126Z,95722.00
2018-11-03T19:39:10.697Z,95720.00
2018-11-03T19:41:43.020Z,95725.00
2018-11-03T19:44:16.299Z,95724.00
2018-11-03T19:46:48.672Z,95731.00
2018-11-03T19:49:21.555Z,95731.00
2018-11-03T19:51:53.443Z,95736.00
2018-11-03T19:54:25.631Z,95738.00
2018-11-03T19:56:59.810Z,95734.00
2018-11-03T19:59:31.991Z,95732.00
2018-11-03T20:02:04.186Z,95733.00
2018-11-03T20:04:36.058Z,95743.00
2018-11-03T20:07:08.336Z,95744.00
2018-11-03T20:09:40.929Z,95743.00
2018-11-03T20:12:13.199Z,95741.00
2018-11-03T20:14:45.449Z,95749.00
2018-11-03T20:17:18.899Z,95756.00
2018-11-03T20:19:51.262Z,95759.00
2018-11-03T20:22:23.216Z,95758.00
2018-11-03T20:24:56.341Z,95755.00
2018-11-03T20:27:29.230Z,95755.00
2018-11-03T20:30:01.700Z,95757.00
2018-11-03T20:32:33.794Z,95760.00
2018-11-03T20:35:06.395Z,95770.00
2018-11-03T20:37:39.045Z,95764.00
2018-11-03T20:40:12.956Z,95758.00
2018-11-03T20:42:45.270Z,95764.00
2018-11-03T20:45:17.292Z,95760.00
2018-11-03T20:47:49.980Z,95757.00
2018-11-03T20:50:22.508Z,95764.00
2018-11-03T20:52:55.382Z,95761.00
2018-11-03T20:55:27.828Z,95759.00
2018-11-03T20:57:59.910Z,95753.00
2018-11-03T21:00:32.191Z,95761.00
2018-11-03T21:03:04.815Z,95761.00
2018-11-03T21:05:36.968Z,95766.00
2018-11-03T21:08:09.466Z,95759.00
2018-11-03T21:10:41.531Z,95765.00
2018-11-03T21:13:13.533Z,95768.00
2018-11-03T21:15:45.770Z,95768.00
2018-11-03T21:18:17.811Z,95760.00
2018-11-03T21:20:50.017Z,95763.00
2018-11-03T21:23:22.626Z,95761.00
2018-11-03T21:25:55.185Z,95762.00
2018-11-03T21:28:27.412Z,95764.00
2018-11-03T21:30:59.546Z,95762.00
2018-11-03T21:33:31.516Z,95761.00
2018-11-03T21:36:03.780Z,95757.00
2018-11-03T21:38:36.026Z,95759.00
2018-11-03T21:41:08.710Z,95755.00
2018-11-03T21:43:42.066Z,95752.00
2018-11-03T21:46:14.467Z,95751.00
2018-11-03T21:48:46.591Z,95751.00
2018-11-03T21:51:18.834Z,95746.00
2018-11-03T21:53:50.756Z,95742.00
2018-11-03T21:56:22.797Z,95751.00
2018-11-03T21:58:55.045Z,95743.00
2018-11-03T22:01:28.298Z,95736.00
2018-11-03T22:04:00.509Z,95735.00
2018-11-03T22:06:32.777Z,95734.00
2018-11-03T22:09:07.860Z,95733.00
2018-11-03T22:11:40.252Z,95725.00
2018-11-03T22:14:12.177Z,95725.00
2018-11-03T22:16:44.562Z,95720.00
2018-11-03T22:19:17.414Z,95722.00
2018-11-03T22:21:49.654Z,95717.00
2018-11-03T22:24:21.994Z,95720.00
2018-11-03T22:26:54.400Z,95728.00
2018-11-03T22:29:26.532Z,95715.00
2018-11-03T22:31:59.441Z,95713.00
2018-11-03T22:34:31.531Z,95706.00
2018-11-03T22:37:03.831Z,95714.00
2018-11-03T22:39:36.157Z,95713.00
2018-11-03T22:42:08.068Z,95716.00
2018-11-03T22:44:40.186Z,95715.00
2018-11-03T22:47:12.765Z,95715.00
2018-11-03T22:49:44.758Z,95708.00
2018-11-03T22:52:16.732Z,95704.00
2018-11-03T22:54:48.770Z,95706.00
2018-11-03T22:57:20.799Z,95701.00
2018-11-03T22:59:52.725Z,95703.00
2018-11-03T23:02:25.597Z,95707.00
2018-11-03T23:04:58.040Z,95705.00
2018-11-03T23:07:30.077Z,95700.00
2018-11-03T23:10:02.017Z,95705.00
2018-11-03T23:12:33.989Z,95693.00
2018-11-03T23:15:06.485Z,95696.00
2018-11-03T23:17:38.532Z,95698.00
2018-11-03T23:20:13.578Z,95694.00
2018-11-03T23:22:45.662Z,95697.00
2018-11-03T23:25:17.503Z,95695.00
2018-11-03T23:27:49.681Z,95697.00
2018-11-03T23:30:21.652Z,95692.00
2018-11-03T23:32:53.485Z,95694.00
2018-11-03T23:35:25.368Z,95700.00
2018-11-03T23:37:57.568Z,95700.00
2018-11-03T23:40:29.658Z,95703.00
2018-11-03T23:43:01.389Z,95699.00
2018-11-03T23:45:33.357Z,95698.00
2018-11-03T23:48:05.345Z,95701.00
2018-11-03T23:50:37.134Z,95697.00
2018-11-03T23:53:09.418Z,95706.00
2018-11-03T23:55:41.508Z,95703.00
2018-11-03T23:58:13.310Z,95706.00
